createdAt,value
2018-06-13T04:09:52.202Z,85.22
2018-06-13T04:10:17.684Z,85.51
2018-06-13T04:10:43.173Z,85.51
2018-06-13T04:11:08.664Z,85.51
2018-06-13T04:11:34.141Z,85.47
2018-06-13T04:11:59.625Z,85.32
2018-06-13T04:12:25.170Z,85.41
2018-06-13T04:12:50.659Z,86.28
2018-06-13T04:13:16.152Z,85.8
2018-06-13T04:13:41.695Z,85.89
2018-06-13T04:14:07.166Z,86.28
2018-06-13T04:14:32.693Z,85.89
2018-06-13T04:14:58.177Z,86.28
2018-06-13T04:15:23.662Z,85.51
2018-06-13T04:15:49.175Z,86.28
2018-06-13T04:16:14.711Z,86.18
2018-06-13T04:16:40.195Z,86.18
2018-06-13T04:17:05.701Z,85.51
2018-06-13T04:17:31.219Z,85.22
2018-06-13T04:17:56.725Z,85.51
2018-06-13T04:18:22.177Z,85.41
2018-06-13T04:18:47.673Z,85.51
2018-06-13T04:19:13.180Z,85.71
2018-06-13T04:19:38.618Z,85.22
2018-06-13T04:20:42.222Z,85.41
2018-06-13T04:21:07.715Z,85.32
2018-06-13T04:21:33.211Z,84.84
2018-06-13T04:21:58.779Z,84.84
2018-06-13T04:22:24.205Z,85.13
2018-06-13T04:22:49.670Z,85.32
2018-06-13T04:23:15.152Z,85.32
2018-06-13T04:23:40.609Z,85.51
2018-06-13T04:24:06.149Z,85.32
2018-06-13T04:24:31.640Z,85.51
2018-06-13T04:24:57.124Z,85.51
2018-06-13T04:25:22.639Z,86.08
2018-06-13T04:25:48.161Z,85.89
2018-06-13T04:26:13.679Z,85.89
2018-06-13T04:26:39.185Z,85.32
2018-06-13T04:27:04.669Z,85.41
2018-06-13T04:27:30.177Z,85.51
2018-06-13T04:27:55.635Z,84.94
2018-06-13T04:28:21.129Z,84.94
2018-06-13T04:28:46.586Z,85.22
2018-06-13T04:29:12.066Z,85.32
2018-06-13T04:29:38.446Z,85.13
2018-06-13T04:30:04.608Z,85.32
2018-06-13T04:30:30.127Z,85.22
2018-06-13T04:30:55.681Z,84.65
2018-06-13T04:31:21.174Z,84.94
2018-06-13T04:31:46.764Z,85.13
2018-06-13T04:32:12.259Z,85.22
2018-06-13T04:32:37.751Z,85.03
2018-06-13T04:33:03.256Z,84.84
2018-06-13T04:33:28.747Z,85.13
2018-06-13T04:33:54.238Z,85.03
2018-06-13T04:34:19.730Z,85.13
2018-06-13T04:34:45.244Z,85.13
2018-06-13T04:35:10.740Z,85.13
2018-06-13T04:35:36.208Z,84.84
2018-06-13T04:36:01.700Z,85.22
2018-06-13T04:36:27.192Z,84.94
2018-06-13T04:36:52.665Z,85.61
2018-06-13T04:37:18.162Z,84.84
2018-06-13T04:37:43.660Z,85.13
2018-06-13T04:38:09.177Z,84.94
2018-06-13T04:38:34.663Z,85.22
2018-06-13T04:39:00.163Z,84.55
2018-06-13T04:39:25.762Z,85.22
2018-06-13T04:39:51.302Z,85.13
2018-06-13T04:40:16.765Z,85.13
2018-06-13T04:40:42.254Z,84.55
2018-06-13T04:41:07.830Z,84.75
2018-06-13T04:41:33.329Z,84.94
2018-06-13T04:41:58.852Z,84.84
2018-06-13T04:42:24.313Z,85.13
2018-06-13T04:42:49.938Z,85.03
2018-06-13T04:43:15.529Z,84.84
2018-06-13T04:43:40.983Z,84.75
2018-06-13T04:44:06.492Z,84.36
2018-06-13T04:44:31.978Z,84.55
2018-06-13T04:44:57.442Z,84.36
2018-06-13T04:45:22.946Z,84.27
2018-06-13T04:45:48.453Z,84.36
2018-06-13T04:46:13.945Z,84.46
2018-06-13T04:46:39.430Z,84.65
2018-06-13T04:47:04.939Z,84.84
2018-06-13T04:48:13.655Z,84.84
2018-06-13T04:48:39.147Z,84.94
2018-06-13T04:49:04.652Z,84.61
2018-06-13T04:49:30.180Z,85.41
2018-06-13T04:49:55.669Z,85.28
2018-06-13T04:50:21.177Z,85.32
2018-06-13T04:50:46.658Z,84.8
2018-06-13T04:51:12.199Z,84.75
2018-06-13T04:51:37.727Z,84.89
2018-06-13T04:52:03.199Z,84.94
2018-06-13T04:52:28.710Z,84.84
2018-06-13T04:52:54.213Z,84.8
2018-06-13T04:53:19.679Z,85.03
2018-06-13T04:53:45.152Z,84.89
2018-06-13T04:54:10.647Z,84.8
2018-06-13T04:54:36.154Z,84.42
2018-06-13T04:55:01.643Z,85.57
2018-06-13T04:55:27.149Z,84.99
2018-06-13T04:55:52.640Z,84.61
2018-06-13T04:56:18.130Z,85.03
2018-06-13T04:56:43.935Z,85.22
2018-06-13T04:57:09.469Z,85.13
2018-06-13T04:57:34.926Z,85.13
2018-06-13T04:58:00.418Z,85.13
2018-06-13T04:58:25.966Z,85.03
2018-06-13T04:58:51.410Z,85.22
2018-06-13T04:59:16.910Z,85.03
2018-06-13T04:59:42.368Z,85.22
2018-06-13T05:00:07.878Z,85.13
2018-06-13T05:00:33.354Z,85.13
2018-06-13T05:00:58.913Z,85.22
2018-06-13T05:01:24.385Z,85.22
2018-06-13T05:01:49.936Z,84.55
2018-06-13T05:02:15.698Z,84.84
2018-06-13T05:02:41.182Z,84.84
2018-06-13T05:03:06.771Z,84.55
2018-06-13T05:03:32.262Z,85.41
2018-06-13T05:03:58.006Z,85.61
2018-06-13T05:04:23.419Z,85.22
2018-06-13T05:04:48.859Z,84.75
2018-06-13T05:05:14.374Z,85.03
2018-06-13T05:05:39.839Z,84.94
2018-06-13T05:06:05.328Z,85.32
2018-06-13T05:06:58.757Z,84.94
2018-06-13T05:07:24.265Z,85.22
2018-06-13T05:07:49.771Z,85.22
2018-06-13T05:08:15.186Z,84.65
2018-06-13T05:08:40.721Z,84.84
2018-06-13T05:09:06.172Z,85.22
2018-06-13T05:09:31.816Z,84.65
2018-06-13T05:09:57.305Z,85.03
2018-06-13T05:10:22.785Z,85.03
2018-06-13T05:10:48.284Z,85.13
2018-06-13T05:11:13.815Z,84.94
2018-06-13T05:11:39.355Z,84.84
2018-06-13T05:12:04.822Z,84.84
2018-06-13T05:12:30.341Z,84.84
2018-06-13T05:12:55.997Z,84.75
2018-06-13T05:13:21.433Z,84.84
2018-06-13T05:13:46.921Z,85.13
2018-06-13T05:14:12.443Z,84.84
2018-06-13T05:14:37.913Z,84.94
2018-06-13T05:15:03.412Z,84.94
2018-06-13T05:15:28.932Z,84.69
2018-06-13T05:15:54.409Z,84.84
2018-06-13T05:16:19.920Z,84.75
2018-06-13T05:16:45.601Z,84.65
2018-06-13T05:17:11.009Z,84.65
2018-06-13T05:17:36.528Z,84.84
2018-06-13T05:18:02.078Z,84.94
2018-06-13T05:18:27.516Z,84.75
2018-06-13T05:18:53.014Z,84.65
2018-06-13T05:19:18.472Z,84.98
2018-06-13T05:19:43.953Z,84.41
2018-06-13T05:20:09.447Z,84.27
2018-06-13T05:20:34.901Z,84.02
2018-06-13T05:21:00.409Z,84.22
2018-06-13T05:21:25.851Z,84.5
2018-06-13T05:21:51.336Z,84.12
2018-06-13T05:22:16.888Z,85.08
2018-06-13T05:22:42.352Z,84.12
2018-06-13T05:23:07.857Z,84.12
2018-06-13T05:23:33.308Z,84.12
2018-06-13T05:23:58.809Z,84.02
2018-06-13T05:24:24.274Z,84.02
2018-06-13T05:24:49.795Z,84.31
2018-06-13T05:25:15.254Z,83.93
2018-06-13T05:25:40.754Z,83.73
2018-06-13T05:26:06.287Z,83.83
2018-06-13T05:26:31.760Z,83.64
2018-06-13T05:26:57.263Z,83.73
2018-06-13T05:27:22.813Z,83.36
2018-06-13T05:27:48.334Z,83.22
2018-06-13T05:28:13.834Z,82.97
2018-06-13T05:28:39.321Z,82.97
2018-06-13T05:29:04.820Z,82.49
2018-06-13T05:29:30.350Z,82.87
2018-06-13T05:29:55.837Z,82.97
2018-06-13T05:30:21.333Z,82.68
2018-06-13T05:30:46.878Z,82.4
2018-06-13T05:31:12.337Z,82.78
2018-06-13T05:31:38.092Z,82.01
2018-06-13T05:32:03.693Z,82.2
2018-06-13T05:32:29.271Z,82.49
2018-06-13T05:32:54.800Z,82.59
2018-06-13T05:33:20.303Z,82.87
2018-06-13T05:33:45.797Z,82.68
2018-06-13T05:34:11.281Z,82.87
2018-06-13T05:34:36.869Z,82.87
2018-06-13T05:35:02.353Z,82.68
2018-06-13T05:35:27.830Z,82.49
2018-06-13T05:35:53.443Z,82.4
2018-06-13T05:36:19.093Z,82.49
2018-06-13T05:36:44.532Z,83.06
2018-06-13T05:37:10.035Z,82.3
2018-06-13T05:37:35.534Z,82.59
2018-06-13T05:38:01.027Z,82.11
2018-06-13T05:38:26.545Z,81.92
2018-06-13T05:38:52.039Z,82.01
2018-06-13T05:39:17.523Z,81.73
2018-06-13T05:39:43.104Z,82.01
2018-06-13T05:40:08.558Z,81.63
2018-06-13T05:40:34.070Z,81.63
2018-06-13T05:40:59.525Z,82.11
2018-06-13T05:41:25.036Z,81.92
2018-06-13T05:41:50.521Z,82.01
2018-06-13T05:42:16.007Z,82.3
2018-06-13T05:42:41.469Z,81.73
2018-06-13T05:43:07.036Z,81.73
2018-06-13T05:43:32.623Z,81.63
2018-06-13T05:43:58.133Z,81.92
2018-06-13T05:44:23.630Z,81.73
2018-06-13T05:44:49.198Z,81.73
2018-06-13T05:45:14.879Z,81.92
2018-06-13T05:45:40.333Z,81.73
2018-06-13T05:46:05.835Z,82.11
2018-06-13T05:46:31.301Z,82.2
2018-06-13T05:46:56.724Z,81.92
2018-06-13T05:47:22.209Z,81.82
2018-06-13T05:47:47.690Z,81.25
2018-06-13T05:48:13.212Z,81.44
2018-06-13T05:48:38.693Z,81.63
2018-06-13T05:49:04.180Z,81.38
2018-06-13T05:49:29.609Z,81.96
2018-06-13T05:49:55.070Z,81.29
2018-06-13T05:50:20.560Z,81.67
2018-06-13T05:50:46.034Z,81.57
2018-06-13T05:51:11.477Z,81.86
2018-06-13T05:51:36.946Z,81.96
2018-06-13T05:52:02.433Z,81.77
2018-06-13T05:52:27.924Z,82.15
2018-06-13T05:52:53.392Z,82.34
2018-06-13T05:53:18.839Z,81.77
2018-06-13T05:53:44.376Z,81.96
2018-06-13T05:54:09.764Z,82.4
2018-06-13T05:54:35.282Z,82.34
2018-06-13T05:55:00.775Z,82.15
2018-06-13T05:55:26.213Z,82.43
2018-06-13T05:55:51.682Z,82.24
2018-06-13T05:56:17.144Z,82.2
2018-06-13T05:56:42.683Z,82.06
2018-06-13T05:57:08.121Z,82.92
2018-06-13T05:57:33.599Z,82.92
2018-06-13T05:57:59.113Z,82.92
2018-06-13T05:58:24.656Z,82.92
2018-06-13T05:58:50.095Z,83.01
2018-06-13T05:59:15.549Z,82.92
2018-06-13T05:59:41.037Z,82.73
2018-06-13T06:00:06.485Z,82.82
2018-06-13T06:00:31.942Z,83.01
2018-06-13T06:00:57.450Z,82.53
2018-06-13T06:01:22.909Z,82.53
2018-06-13T06:01:48.366Z,83.01
2018-06-13T06:02:13.832Z,82.63
2018-06-13T06:02:39.298Z,82.63
2018-06-13T06:03:04.779Z,82.92
2018-06-13T06:03:30.251Z,82.73
2018-06-13T06:03:55.691Z,82.73
2018-06-13T06:04:21.255Z,82.92
2018-06-13T06:04:46.788Z,82.53
2018-06-13T06:05:12.171Z,82.43
2018-06-13T06:05:37.650Z,82.43
2018-06-13T06:06:03.142Z,82.73
2018-06-13T06:06:28.613Z,82.53
2018-06-13T06:06:54.055Z,82.92
2018-06-13T06:07:19.613Z,83.01
2018-06-13T06:07:45.041Z,82.73
2018-06-13T06:08:10.630Z,82.92
2018-06-13T06:08:36.137Z,82.73
2018-06-13T06:09:01.593Z,82.73
2018-06-13T06:09:27.025Z,82.82
2018-06-13T06:09:52.568Z,82.82
2018-06-13T06:10:18.085Z,82.73
2018-06-13T06:10:43.437Z,82.73
2018-06-13T06:11:08.931Z,82.92
2018-06-13T06:11:34.394Z,82.82
2018-06-13T06:11:59.869Z,82.53
2018-06-13T06:12:25.399Z,82.53
2018-06-13T06:12:50.881Z,82.43
2018-06-13T06:13:16.317Z,82.24
2018-06-13T06:13:41.800Z,82.43
2018-06-13T06:14:07.304Z,82.24
2018-06-13T06:14:32.750Z,82.43
2018-06-13T06:14:58.236Z,82.34
2018-06-13T06:15:23.682Z,82.15
2018-06-13T06:15:49.195Z,82.92
2018-06-13T06:16:14.671Z,82.53
2018-06-13T06:16:40.130Z,82.34
2018-06-13T06:17:05.635Z,82.34
2018-06-13T06:17:31.081Z,82.43
2018-06-13T06:17:56.530Z,82.15
2018-06-13T06:18:22.030Z,82.34
2018-06-13T06:18:47.505Z,81.77
2018-06-13T06:19:12.964Z,81.67
2018-06-13T06:19:38.430Z,81.57
2018-06-13T06:20:03.855Z,81.38
2018-06-13T06:20:29.391Z,81.48
2018-06-13T06:20:54.819Z,81
2018-06-13T06:21:20.329Z,80.71
2018-06-13T06:21:45.836Z,81
2018-06-13T06:22:11.426Z,81.1
2018-06-13T06:23:15.533Z,80.81
2018-06-13T06:23:41.073Z,81.1
2018-06-13T06:24:06.512Z,81.1
2018-06-13T06:24:31.979Z,81.1
2018-06-13T06:24:57.497Z,81.1
2018-06-13T06:25:22.980Z,81.1
2018-06-13T06:25:48.672Z,81.1
2018-06-13T06:26:14.413Z,81.1
2018-06-13T06:26:39.914Z,81.2
2018-06-13T06:27:05.468Z,81.1
2018-06-13T06:27:30.908Z,80.71
2018-06-13T06:27:56.369Z,80.33
2018-06-13T06:28:21.960Z,80.04
2018-06-13T06:28:47.345Z,80.71
2018-06-13T06:29:12.825Z,80.24
2018-06-13T06:29:38.302Z,80.62
2018-06-13T06:30:03.795Z,80.14
2018-06-13T06:30:29.276Z,80.52
2018-06-13T06:30:54.775Z,80.04
2018-06-13T06:31:20.371Z,80.43
2018-06-13T06:31:46.027Z,80.71
2018-06-13T06:32:11.533Z,80.52
2018-06-13T06:32:36.989Z,80.24
2018-06-13T06:33:02.485Z,80.14
2018-06-13T06:33:28.194Z,80.24
2018-06-13T06:33:53.604Z,80.33
2018-06-13T06:34:19.164Z,80.24
2018-06-13T06:34:44.688Z,80.33
2018-06-13T06:35:10.107Z,80.14
2018-06-13T06:35:35.766Z,80.14
2018-06-13T06:36:01.275Z,80.52
2018-06-13T06:36:26.710Z,79.85
2018-06-13T06:36:52.332Z,80.04
2018-06-13T06:38:06.232Z,79.99
2018-06-13T06:38:31.728Z,80.08
2018-06-13T06:38:57.471Z,80.47
2018-06-13T06:39:23.178Z,80.27
2018-06-13T06:39:48.696Z,80.18
2018-06-13T06:40:14.686Z,80.27
2018-06-13T06:40:40.485Z,80.47
2018-06-13T06:41:06.012Z,80.08
2018-06-13T06:41:31.527Z,79.99
2018-06-13T06:41:56.973Z,79.7
2018-06-13T06:42:22.425Z,79.32
2018-06-13T06:42:47.895Z,79.41
2018-06-13T06:43:13.368Z,78.84
2018-06-13T06:43:39.002Z,78.74
2018-06-13T06:44:04.531Z,78.27
2018-06-13T06:44:30.091Z,78.64
2018-06-13T06:44:55.601Z,78.93
2018-06-13T06:45:21.166Z,78.93
2018-06-13T06:45:47.333Z,79.03
2018-06-13T06:46:12.325Z,79.22
2018-06-13T06:46:37.944Z,79.13
2018-06-13T06:47:03.656Z,78.74
2018-06-13T06:47:29.177Z,78.74
2018-06-13T06:47:54.701Z,79.13
2018-06-13T06:48:20.215Z,79.32
2018-06-13T06:48:45.879Z,79.03
2018-06-13T06:49:11.546Z,79.32
2018-06-13T06:49:37.209Z,79.51
2018-06-13T06:50:02.627Z,79.6
2018-06-13T06:50:28.149Z,79.8
2018-06-13T06:50:53.743Z,79.6
2018-06-13T06:51:19.180Z,79.6
2018-06-13T06:51:44.683Z,79.41
2018-06-13T06:52:10.159Z,79.89
2018-06-13T06:52:35.676Z,79.32
2018-06-13T06:53:01.143Z,79.41
2018-06-13T06:53:26.700Z,79.41
2018-06-13T06:53:52.213Z,79.51
2018-06-13T06:54:17.772Z,79.22
2018-06-13T06:54:43.256Z,79.13
2018-06-13T06:55:08.813Z,78.84
2018-06-13T06:55:34.294Z,78.93
2018-06-13T06:55:59.740Z,78.27
2018-06-13T06:56:25.448Z,78.36
2018-06-13T06:56:51.075Z,78.64
2018-06-13T06:57:16.452Z,78.64
2018-06-13T06:57:42.148Z,78.59
2018-06-13T06:58:07.773Z,77.92
2018-06-13T06:58:33.261Z,77.31
2018-06-13T06:58:59.172Z,77.63
2018-06-13T06:59:24.734Z,77.44
2018-06-13T06:59:50.261Z,77.5
2018-06-13T07:00:15.750Z,77.78
2018-06-13T07:00:44.694Z,77.73
2018-06-13T07:01:10.147Z,77.53
2018-06-13T07:01:35.654Z,77.53
2018-06-13T07:02:01.834Z,77.73
2018-06-13T07:02:27.484Z,76.96
2018-06-13T07:02:52.943Z,77.25
2018-06-13T07:03:18.806Z,77.25
2018-06-13T07:03:44.343Z,77.25
2018-06-13T07:04:10.197Z,77.44
2018-06-13T07:04:35.741Z,77.25
2018-06-13T07:05:01.212Z,76.57
2018-06-13T07:05:26.745Z,76.81
2018-06-13T07:05:52.293Z,75.81
2018-06-13T07:06:18.114Z,76.32
2018-06-13T07:06:43.574Z,75.33
2018-06-13T07:07:09.509Z,75.37
2018-06-13T07:07:35.069Z,76.04
2018-06-13T07:08:00.570Z,76.14
2018-06-13T07:08:26.217Z,75.95
2018-06-13T07:08:51.673Z,76.04
2018-06-13T07:09:17.141Z,75.56
2018-06-13T07:09:42.617Z,75.08
2018-06-13T07:10:08.344Z,75.37
2018-06-13T07:10:33.900Z,75.18
2018-06-13T07:10:59.305Z,74.98
2018-06-13T07:11:24.875Z,74.79
2018-06-13T07:11:50.380Z,75.08
2018-06-13T07:12:15.863Z,74.89
2018-06-13T07:12:41.316Z,74.89
2018-06-13T07:13:06.810Z,75.27
2018-06-13T07:13:32.285Z,74.51
2018-06-13T07:13:57.862Z,74.41
2018-06-13T07:14:23.379Z,74.31
2018-06-13T07:14:48.984Z,74.22
2018-06-13T07:15:14.472Z,74.22
2018-06-13T07:15:40.235Z,73.35
2018-06-13T07:16:05.679Z,73.45
2018-06-13T07:16:31.110Z,74.22
2018-06-13T07:16:56.610Z,73.65
2018-06-13T07:17:22.102Z,73.65
2018-06-13T07:17:47.599Z,73.74
2018-06-13T07:18:13.077Z,74.02
2018-06-13T07:18:38.607Z,73.97
2018-06-13T07:19:04.161Z,73.68
2018-06-13T07:19:29.817Z,73.93
2018-06-13T07:19:55.463Z,73.68
2018-06-13T07:20:20.930Z,73.97
2018-06-13T07:20:46.537Z,73.87
2018-06-13T07:21:12.014Z,73.87
2018-06-13T07:21:37.869Z,73.77
2018-06-13T07:22:03.400Z,73.58
2018-06-13T07:22:29.066Z,73.39
2018-06-13T07:22:54.596Z,73.49
2018-06-13T07:23:20.107Z,73.49
2018-06-13T07:23:45.782Z,73.58
2018-06-13T07:24:11.275Z,73.3
2018-06-13T07:24:36.792Z,73.39
2018-06-13T07:25:02.374Z,73.3
2018-06-13T07:25:28.187Z,73.49
2018-06-13T07:25:53.676Z,73.39
2018-06-13T07:26:19.168Z,73.49
2018-06-13T07:26:44.982Z,72.91
2018-06-13T07:27:10.517Z,72.72
2018-06-13T07:27:36.009Z,72.72
2018-06-13T07:28:01.792Z,73.2
2018-06-13T07:28:27.159Z,73
2018-06-13T07:28:52.670Z,73.2
2018-06-13T07:29:18.173Z,72.53
2018-06-13T07:29:43.847Z,73
2018-06-13T07:30:09.359Z,73.2
2018-06-13T07:30:35.117Z,73.49
2018-06-13T07:31:00.648Z,73.39
2018-06-13T07:31:26.086Z,73.58
2018-06-13T07:31:51.596Z,73.45
2018-06-13T07:32:17.164Z,73.3
2018-06-13T07:32:42.617Z,73.3
2018-06-13T07:33:08.139Z,72.43
2018-06-13T07:33:33.573Z,73.3
2018-06-13T07:33:59.083Z,72.43
2018-06-13T07:34:24.592Z,72.63
2018-06-13T07:34:50.098Z,72.49
2018-06-13T07:35:15.609Z,72.72
2018-06-13T07:35:41.058Z,72.63
2018-06-13T07:36:06.591Z,72.11
2018-06-13T07:36:32.095Z,72.2
2018-06-13T07:36:57.631Z,72.53
2018-06-13T07:37:23.077Z,73.2
2018-06-13T07:37:48.667Z,73.07
2018-06-13T07:38:14.232Z,72.39
2018-06-13T07:38:39.680Z,72.49
2018-06-13T07:39:05.237Z,72.11
2018-06-13T07:39:30.772Z,72.2
2018-06-13T07:39:56.303Z,72.3
2018-06-13T07:40:21.792Z,72.59
2018-06-13T07:40:47.361Z,72.39
2018-06-13T07:41:12.848Z,72.88
2018-06-13T07:42:11.402Z,73.55
2018-06-13T07:42:36.890Z,73.07
2018-06-13T07:43:02.403Z,72.88
2018-06-13T07:43:27.882Z,72.88
2018-06-13T07:43:53.385Z,73.1
2018-06-13T07:44:18.887Z,73.07
2018-06-13T07:44:44.383Z,72.63
2018-06-13T07:45:09.880Z,73.2
2018-06-13T07:45:35.398Z,73.1
2018-06-13T07:46:00.902Z,72.72
2018-06-13T07:46:26.431Z,72.63
2018-06-13T07:46:51.907Z,72.72
2018-06-13T07:47:17.403Z,72.53
2018-06-13T07:47:42.973Z,72.53
2018-06-13T07:48:08.526Z,72.72
2018-06-13T07:48:34.059Z,72.24
2018-06-13T07:48:59.584Z,71.76
2018-06-13T07:49:25.091Z,72.05
2018-06-13T07:49:50.588Z,72.33
2018-06-13T07:50:16.132Z,72.33
2018-06-13T07:50:41.727Z,72.24
2018-06-13T07:51:07.215Z,72.24
2018-06-13T07:51:32.699Z,72.2
2018-06-13T07:51:58.736Z,71.82
2018-06-13T07:52:24.287Z,71.92
2018-06-13T07:52:49.822Z,72.2
2018-06-13T07:53:15.747Z,72.59
2018-06-13T07:53:41.871Z,72.3
2018-06-13T07:54:07.386Z,73.07
2018-06-13T07:54:32.895Z,72.49
2018-06-13T07:54:58.388Z,72.78
2018-06-13T07:55:23.884Z,73.07
2018-06-13T07:55:49.393Z,72.59
2018-06-13T07:56:14.867Z,73.26
2018-06-13T07:56:40.345Z,72.59
2018-06-13T07:57:06.292Z,72.78
2018-06-13T07:57:31.847Z,72.97
2018-06-13T07:57:57.293Z,73.16
2018-06-13T07:58:22.805Z,73.35
2018-06-13T07:58:48.272Z,73.45
2018-06-13T07:59:13.831Z,73.26
2018-06-13T07:59:39.231Z,73.83
2018-06-13T08:00:05.266Z,73.83
2018-06-13T08:00:30.803Z,74.02
2018-06-13T08:00:56.325Z,73.45
2018-06-13T08:01:21.908Z,73.45
2018-06-13T08:01:47.444Z,73.45
2018-06-13T08:02:12.919Z,73.45
2018-06-13T08:02:38.540Z,73.74
2018-06-13T08:03:04.129Z,73.83
2018-06-13T08:03:29.557Z,72.88
2018-06-13T08:03:55.082Z,73.07
2018-06-13T08:04:20.553Z,72.88
2018-06-13T08:04:46.073Z,72.88
2018-06-13T08:05:11.564Z,73.07
2018-06-13T08:05:37.055Z,73.07
2018-06-13T08:06:02.642Z,73
2018-06-13T08:06:28.269Z,72.53
2018-06-13T08:06:53.701Z,72.91
2018-06-13T08:07:19.185Z,73.1
2018-06-13T08:07:44.638Z,73.3
2018-06-13T08:08:10.223Z,73.3
2018-06-13T08:08:35.844Z,72.81
2018-06-13T08:09:01.299Z,73
2018-06-13T08:09:26.712Z,73.3
2018-06-13T08:09:52.174Z,72.91
2018-06-13T08:10:17.708Z,72.53
2018-06-13T08:10:43.174Z,72.63
2018-06-13T08:11:08.649Z,72.43
2018-06-13T08:11:34.226Z,72.33
2018-06-13T08:11:59.727Z,72.53
2018-06-13T08:12:25.220Z,73.45
2018-06-13T08:12:50.745Z,72.39
2018-06-13T08:13:16.256Z,72.49
2018-06-13T08:13:41.848Z,73.07
2018-06-13T08:14:07.267Z,72.97
2018-06-13T08:14:32.731Z,73.45
2018-06-13T08:14:58.237Z,73.35
2018-06-13T08:15:23.642Z,73.93
2018-06-13T08:15:49.185Z,73.83
2018-06-13T08:16:14.702Z,73.55
2018-06-13T08:16:40.161Z,73.65
2018-06-13T08:17:05.694Z,73.45
2018-06-13T08:17:31.104Z,74.12
2018-06-13T08:17:56.590Z,73.74
2018-06-13T08:18:22.101Z,73.35
2018-06-13T08:18:47.580Z,73.16
2018-06-13T08:19:13.048Z,72.64
2018-06-13T08:19:38.545Z,73.03
2018-06-13T08:20:04.019Z,73.41
2018-06-13T08:20:29.483Z,73.51
2018-06-13T08:20:54.961Z,73.22
2018-06-13T08:21:20.460Z,73.9
2018-06-13T08:21:46.029Z,73.51
2018-06-13T08:22:11.511Z,74.27
2018-06-13T08:22:37.018Z,74.37
2018-06-13T08:23:02.548Z,74.08
2018-06-13T08:23:28.169Z,74.27
2018-06-13T08:23:53.716Z,74.57
2018-06-13T08:24:19.199Z,74.76
2018-06-13T08:24:44.703Z,74.57
2018-06-13T08:25:10.201Z,74.24
2018-06-13T08:25:35.668Z,74.47
2018-06-13T08:26:01.206Z,74.76
2018-06-13T08:26:26.716Z,74.85
2018-06-13T08:26:52.287Z,74.95
2018-06-13T08:27:17.779Z,75.14
2018-06-13T08:27:43.273Z,75.04
2018-06-13T08:28:08.759Z,75.43
2018-06-13T08:28:34.267Z,75.43
2018-06-13T08:28:59.773Z,75.04
2018-06-13T08:29:25.268Z,75.23
2018-06-13T08:29:50.796Z,75.81
2018-06-13T08:30:16.371Z,75.48
2018-06-13T08:30:41.869Z,76
2018-06-13T08:31:07.393Z,76.29
2018-06-13T08:31:32.863Z,75.81
2018-06-13T08:31:58.373Z,76.15
2018-06-13T08:32:23.929Z,76.29
2018-06-13T08:32:49.388Z,76.15
2018-06-13T08:33:14.885Z,76.25
2018-06-13T08:33:40.519Z,76.25
2018-06-13T08:34:05.983Z,76.35
2018-06-13T08:34:31.446Z,76.06
2018-06-13T08:34:56.903Z,76.44
2018-06-13T08:35:22.399Z,76.25
2018-06-13T08:35:47.902Z,76.64
2018-06-13T08:36:13.399Z,76.54
2018-06-13T08:36:38.915Z,77.21
2018-06-13T08:37:04.372Z,77.02
2018-06-13T08:37:29.867Z,76.77
2018-06-13T08:37:55.329Z,77.25
2018-06-13T08:38:20.850Z,77.21
2018-06-13T08:38:46.448Z,76.86
2018-06-13T08:39:11.927Z,76.77
2018-06-13T08:39:37.451Z,77.25
2018-06-13T08:40:02.988Z,76.77
2018-06-13T08:40:28.522Z,76.39
2018-06-13T08:40:53.919Z,76.25
2018-06-13T08:41:19.405Z,76.54
2018-06-13T08:41:44.854Z,76.25
2018-06-13T08:42:10.332Z,75.87
2018-06-13T08:42:35.890Z,76.39
2018-06-13T08:43:01.371Z,76.25
2018-06-13T08:43:26.856Z,76.19
2018-06-13T08:43:52.285Z,76.25
2018-06-13T08:44:17.759Z,76.54
2018-06-13T08:44:43.238Z,76.48
2018-06-13T08:45:08.745Z,76.35
2018-06-13T08:45:34.244Z,76.15
2018-06-13T08:45:59.771Z,75.9
2018-06-13T08:46:25.181Z,76.25
2018-06-13T08:46:50.653Z,76
2018-06-13T08:47:16.108Z,75.68
2018-06-13T08:47:41.557Z,75.2
2018-06-13T08:48:07.069Z,75.2
2018-06-13T08:48:32.546Z,75.29
2018-06-13T08:48:58.022Z,75.58
2018-06-13T08:49:23.498Z,75.29
2018-06-13T08:49:48.981Z,75.71
2018-06-13T08:50:14.456Z,76.1
2018-06-13T08:50:39.879Z,74.95
2018-06-13T08:51:05.329Z,75.87
2018-06-13T08:51:30.770Z,75.71
2018-06-13T08:51:56.291Z,75.71
2018-06-13T08:52:21.738Z,75.62
2018-06-13T08:52:47.327Z,75.43
2018-06-13T08:53:12.828Z,75.52
2018-06-13T08:53:38.273Z,75.62
2018-06-13T08:54:03.753Z,76.1
2018-06-13T08:54:29.210Z,75.62
2018-06-13T08:54:54.706Z,74.85
2018-06-13T08:55:20.141Z,75.33
2018-06-13T08:55:45.731Z,75.62
2018-06-13T08:56:11.106Z,75.81
2018-06-13T08:56:36.529Z,74.95
2018-06-13T08:57:02.061Z,74.76
2018-06-13T08:57:27.553Z,74.85
2018-06-13T08:57:53.015Z,75.52
2018-06-13T08:58:18.555Z,75.33
2018-06-13T08:58:44.064Z,75.23
2018-06-13T08:59:09.536Z,75.33
2018-06-13T08:59:34.999Z,75.23
2018-06-13T09:00:00.419Z,75.14
2018-06-13T09:00:25.896Z,75.23
2018-06-13T09:00:51.343Z,74.66
2018-06-13T09:01:16.880Z,74.72
2018-06-13T09:01:42.374Z,74.57
2018-06-13T09:02:07.871Z,74.66
2018-06-13T09:02:33.337Z,74.85
2018-06-13T09:02:58.794Z,74.66
2018-06-13T09:03:24.295Z,74.52
2018-06-13T09:03:49.771Z,73.99
2018-06-13T09:04:15.227Z,74.08
2018-06-13T09:04:40.670Z,74.27
2018-06-13T09:05:06.159Z,74.18
2018-06-13T09:05:31.601Z,74.37
2018-06-13T09:05:57.088Z,74.27
2018-06-13T09:06:22.533Z,73.51
2018-06-13T09:06:48.024Z,73.22
2018-06-13T09:07:13.514Z,72.55
2018-06-13T09:07:38.995Z,72.59
2018-06-13T09:08:04.437Z,72.45
2018-06-13T09:08:29.898Z,72.39
2018-06-13T09:08:55.509Z,72.3
2018-06-13T09:09:21.039Z,72.39
2018-06-13T09:09:46.533Z,72.39
2018-06-13T09:10:11.975Z,72.68
2018-06-13T09:10:37.460Z,72.3
2018-06-13T09:11:02.885Z,71.82
2018-06-13T09:11:28.337Z,70.51
2018-06-13T09:11:53.807Z,71.09
2018-06-13T09:12:19.252Z,70.32
2018-06-13T09:12:44.736Z,70.99
2018-06-13T09:13:10.183Z,70.51
2018-06-13T09:13:35.696Z,69.93
2018-06-13T09:14:01.127Z,70.13
2018-06-13T09:14:26.647Z,69.93
2018-06-13T09:14:52.211Z,70.13
2018-06-13T09:15:17.607Z,69.07
2018-06-13T09:15:43.058Z,68.88
2018-06-13T09:16:08.561Z,69.17
2018-06-13T09:16:34.046Z,69.56
2018-06-13T09:16:59.511Z,68.88
2018-06-13T09:17:25.107Z,68.79
2018-06-13T09:17:50.511Z,68.34
2018-06-13T09:18:15.985Z,68.34
2018-06-13T09:18:41.431Z,68.44
2018-06-13T09:19:06.899Z,68.05
2018-06-13T09:19:32.372Z,67.57
2018-06-13T09:19:57.811Z,67.38
2018-06-13T09:20:23.294Z,67.86
2018-06-13T09:20:48.821Z,67.57
2018-06-13T09:21:14.329Z,67.47
2018-06-13T09:21:39.797Z,68.05
2018-06-13T09:22:05.297Z,68.24
2018-06-13T09:22:30.768Z,67.09
2018-06-13T09:22:56.200Z,67.57
2018-06-13T09:23:21.703Z,67.38
2018-06-13T09:23:47.120Z,67.09
2018-06-13T09:24:12.652Z,67.29
2018-06-13T09:24:38.128Z,66.9
2018-06-13T09:25:03.616Z,65.56
2018-06-13T09:25:29.058Z,64.89
2018-06-13T09:25:54.485Z,65.27
2018-06-13T09:26:20.035Z,64.4
2018-06-13T09:26:45.498Z,64.12
2018-06-13T09:27:10.955Z,63.96
2018-06-13T09:27:36.541Z,64.31
2018-06-13T09:28:02.037Z,64.34
2018-06-13T09:28:27.496Z,64.34
2018-06-13T09:28:52.961Z,64.34
2018-06-13T09:29:18.416Z,64.63
2018-06-13T09:29:43.896Z,64.15
2018-06-13T09:30:09.389Z,64.53
2018-06-13T09:30:34.836Z,64.34
2018-06-13T09:31:00.549Z,64.34
2018-06-13T09:31:26.046Z,64.25
2018-06-13T09:31:51.534Z,64.15
2018-06-13T09:32:16.990Z,64.43
2018-06-13T09:32:42.512Z,64.63
2018-06-13T09:33:08.076Z,63.96
2018-06-13T09:33:33.539Z,63.99
2018-06-13T09:33:59.038Z,63.51
2018-06-13T09:34:24.500Z,63.6
2018-06-13T09:34:50.005Z,63.51
2018-06-13T09:35:15.451Z,63.7
2018-06-13T09:35:40.917Z,63.41
2018-06-13T09:36:06.416Z,62.55
2018-06-13T09:36:31.897Z,62.64
2018-06-13T09:36:57.425Z,62.84
2018-06-13T09:37:22.969Z,62.64
2018-06-13T09:37:48.371Z,62.74
2018-06-13T09:38:13.891Z,62.16
2018-06-13T09:38:39.328Z,61.2
2018-06-13T09:39:04.825Z,61.4
2018-06-13T09:39:30.308Z,61.2
2018-06-13T09:39:55.745Z,61.43
2018-06-13T09:40:21.227Z,61.43
2018-06-13T09:40:46.690Z,60.72
2018-06-13T09:41:12.176Z,61.23
2018-06-13T09:41:37.718Z,61.61
2018-06-13T09:42:03.103Z,61.4
2018-06-13T09:42:28.605Z,61.2
2018-06-13T09:42:54.080Z,61.33
2018-06-13T09:43:19.630Z,61.23